Details From VAAH - Ahmedabad
To VABO - Vadodara
Flight Number -
Tags Routegen Generated
Created
Modified
Stats Distance 64 nm / 118 km
Max Altitude 5,000 ft / 1,524 m
Waypoints 5
Social Downloads 1
Likes 0
Share VATSIM

Download

Looking for another format? Having issues loading an existing format? Contact us
Advertisement - Login to hide

Notes

Departing runway 4 VAAH. Arriving runway 4 VABO. Advanced Generation Settings: Turn accuracy: 20 Altitude: 5000ft Smoothed angles: False Runway changes allowed: True Calculation order: Arrival --> Departure --> Intermediates Multipass intermediates: True

Route

VAAH +23.14_+072.70 +22.81_+072.96 +22.40_+073.29 VABO

ID Type Via Altitude Latitude Longitude Leg Dist Tot Dist Heading (true) Name
O VAAH APT - 5,000 ft / 1,524 m 23.08839˚ 72.64661˚ - 0 nm - -
+23.14_+072.70 LATLON - 5,000 ft / 1,524 m 23.13994˚ 72.70183˚ 4 nm 4 nm 45° / 45° -
+22.81_+072.96 LATLON - 5,000 ft / 1,524 m 22.81270˚ 72.95849˚ 24 nm 28 nm 144° / 144° -
+22.40_+073.29 LATLON - 880 ft / 268 m 22.39607˚ 73.28911˚ 31 nm 59 nm 144° / 144° -
O VABO APT - 0 ft / 0 m 22.34412˚ 73.23462˚ 4 nm 63 nm 224° / 224° VADODARA

Altitude Profile

Advertisement - Login to hide

VAAH

Details ICAO VAAH (AMD)
Name AHMEDABAD
Region India
Timezone Asia/Kolkata (UTC+5.5)
Stats Elevation 189 ft / 58 m (AMSL)
Location 23.077196° 72.634632°
Runways 1
Magnetic Variation 0.478° E

METAR

VAAH 130200Z 02002KT 2500 HZ NSC 14/09 Q1017 TEMPO 1500

Decode

TAF

TAF VAAH 122300Z 1300/1406 28005KT 4000 FUHZ FEW080 BECMG 1301/1303 34004KT 1500 HZBR BECMG 1304/1306 02006KT 4000 FUHZ BECMG 1312/1314 33005KT 4000 FUHZ BECMG 1401/1403 36004KT 2000 HZBR BECMG 1404/1406 02005KT 6000

Decode

Departure Runways

ID Width Length Bearing (true) Bearing (mag) Surface Threshold Offset Overrun Length
05 150 ft / 46 m 11,464 ft / 3,494 m 44.55° 44.07° Asphalt 0 ft / 0 m 210 ft / 64 m
23 150 ft / 46 m 11,464 ft / 3,494 m 224.56° 224.08° Asphalt 0 ft / 0 m 195 ft / 59 m

VABO

Details ICAO VABO (BDQ)
Name VADODARA
Region India
Timezone Asia/Kolkata (UTC+5.5)
Stats Elevation 129 ft / 39 m (AMSL)
Location 22.336164° 73.226291°
Runways 1
Magnetic Variation 0.329° E

METAR

VABO 130200Z 00000KT 2000 HZ NSC 15/12 Q1016 NOSIG

Decode

TAF

Not found

Destination Runways

ID Width Length Bearing (true) Bearing (mag) Surface Threshold Offset Overrun Length
04 150 ft / 46 m 8,084 ft / 2,464 m 44.10° 43.77° Asphalt 700 ft / 213 m 200 ft / 61 m
22 150 ft / 46 m 8,084 ft / 2,464 m 224.11° 223.78° Asphalt 0 ft / 0 m 200 ft / 61 m

Approach Navaids

Runway Type Ident Frequency Range Bearing (true) Bearing (mag) Slope Elevation
22 Localiser VDD 110.50 MHz 18 nm / 33 km 224.11° 223.78° - 129 ft / 39 m (AMSL)
22 Glidescope VDD 110.50 MHz 10 nm / 19 km 224.11° 223.78° 3.00° 129 ft / 39 m (AMSL)
22 DME VDD 110.50 MHz 18 nm / 33 km - - - 129 ft / 39 m (AMSL)

Popular Alternatives